createdAt,value
2022-08-11T12:14:38.481Z,28.79
2022-08-11T12:17:06.487Z,28.30
2022-08-11T12:19:35.658Z,28.56
2022-08-11T12:22:22.925Z,28.34
2022-08-11T12:25:50.057Z,28.46
2022-08-11T12:28:46.195Z,28.16
2022-08-11T12:31:13.839Z,28.41
2022-08-11T12:33:44.688Z,28.12
2022-08-11T12:36:17.091Z,28.26
2022-08-11T12:38:50.315Z,28.65
2022-08-11T12:41:40.911Z,28.72
2022-08-11T12:44:29.749Z,28.29
2022-08-11T12:47:01.382Z,27.87
2022-08-11T12:49:51.289Z,28.49
2022-08-11T12:52:29.324Z,28.55
2022-08-11T12:55:04.080Z,28.46
2022-08-11T12:57:55.929Z,28.72
2022-08-11T13:00:44.666Z,28.34
2022-08-11T13:03:32.542Z,27.94
2022-08-11T13:06:05.372Z,27.62
2022-08-11T13:08:36.932Z,28.31
2022-08-11T13:11:56.154Z,28.06
2022-08-11T13:14:15.577Z,27.32
2022-08-11T13:17:04.347Z,27.86
2022-08-11T13:19:32.811Z,28.10
2022-08-11T13:22:02.489Z,27.86
2022-08-11T13:24:34.207Z,27.69
2022-08-11T13:27:05.039Z,27.85
2022-08-11T13:29:32.781Z,27.74
2022-08-11T13:32:00.485Z,27.48
2022-08-11T13:34:32.071Z,27.47
2022-08-11T13:37:04.330Z,27.75
2022-08-11T13:39:33.676Z,26.98
2022-08-11T13:42:03.814Z,27.59
2022-08-11T13:44:36.682Z,28.07
2022-08-11T13:47:06.869Z,27.81
2022-08-11T13:49:39.831Z,28.02
2022-08-11T13:52:13.195Z,27.09
2022-08-11T13:54:41.769Z,27.27
2022-08-11T13:57:38.559Z,26.67
2022-08-11T14:00:23.522Z,27.25
2022-08-11T14:02:57.808Z,27.12
2022-08-11T14:05:38.145Z,26.88
2022-08-11T14:08:37.766Z,27.91
2022-08-11T14:12:21.751Z,27.47
2022-08-11T14:14:13.772Z,27.55
2022-08-11T14:16:44.783Z,27.87
2022-08-11T14:19:14.637Z,27.82
2022-08-11T14:22:07.274Z,26.62
2022-08-11T14:24:38.947Z,26.37
2022-08-11T14:27:09.211Z,26.99
2022-08-11T14:29:58.078Z,27.03
2022-08-11T14:32:26.874Z,25.99
2022-08-11T14:34:55.971Z,26.19
2022-08-11T14:37:25.722Z,26.04
2022-08-11T14:39:58.221Z,26.45
2022-08-11T14:42:48.638Z,26.43
2022-08-11T14:45:55.533Z,26.32
2022-08-11T14:48:24.452Z,26.52
2022-08-11T14:50:52.918Z,26.55
2022-08-11T14:53:22.711Z,26.40
2022-08-11T14:56:09.931Z,26.24
2022-08-11T14:58:43.226Z,26.53
2022-08-11T15:01:30.538Z,26.27
2022-08-11T15:04:22.410Z,27.02
2022-08-11T15:06:48.714Z,26.06
2022-08-11T15:09:16.298Z,26.96
2022-08-11T15:12:03.597Z,27.08
2022-08-11T15:14:49.950Z,26.80
2022-08-11T15:17:24.095Z,26.71
2022-08-11T15:20:23.522Z,26.48
2022-08-11T15:23:16.193Z,26.50
2022-08-11T15:25:46.431Z,26.45
2022-08-11T15:28:38.546Z,26.47
2022-08-11T15:31:24.678Z,26.90
2022-08-11T15:34:18.707Z,26.22
2022-08-11T15:37:07.257Z,26.18
2022-08-11T15:40:32.143Z,26.70
2022-08-11T15:43:53.439Z,26.51
2022-08-11T15:46:29.604Z,26.78
2022-08-11T15:49:06.521Z,26.12
2022-08-11T15:51:42.943Z,26.22
2022-08-11T15:54:25.519Z,26.78
2022-08-11T15:56:55.611Z,26.30
2022-08-11T15:59:44.299Z,26.31
2022-08-11T16:02:34.398Z,26.84
2022-08-11T16:05:06.645Z,26.26
2022-08-11T16:07:40.780Z,26.29
2022-08-11T16:10:24.922Z,26.54
2022-08-11T16:13:05.221Z,26.50
2022-08-11T16:16:06.566Z,25.92
2022-08-11T16:18:42.201Z,25.90
2022-08-11T16:21:33.716Z,25.86
2022-08-11T16:24:06.854Z,26.07
2022-08-11T16:27:07.471Z,25.36
2022-08-11T16:29:30.280Z,25.57
2022-08-11T16:32:17.095Z,25.90
2022-08-11T16:35:05.373Z,26.08
2022-08-11T16:37:53.438Z,26.09
2022-08-11T16:40:22.855Z,25.27
2022-08-11T16:43:11.816Z,25.67
2022-08-11T16:45:59.629Z,26.03
2022-08-11T16:48:37.345Z,25.85
2022-08-11T16:51:08.133Z,25.81
2022-08-11T16:53:59.957Z,25.45
2022-08-11T16:56:41.954Z,25.81
2022-08-11T16:59:18.230Z,25.91
2022-08-11T17:01:59.992Z,25.18
2022-08-11T17:05:30.367Z,26.10
2022-08-11T17:08:20.463Z,25.26
2022-08-11T17:11:22.398Z,25.13
2022-08-11T17:13:58.916Z,25.98
2022-08-11T17:16:36.446Z,25.28
2022-08-11T17:20:41.298Z,26.13
2022-08-11T17:22:29.788Z,25.81
2022-08-11T17:25:00.006Z,24.98
2022-08-11T17:27:28.490Z,25.48
2022-08-11T17:29:59.912Z,25.68
2022-08-11T17:33:09.942Z,25.26
2022-08-11T17:35:41.023Z,25.70
2022-08-11T17:38:23.111Z,25.17
2022-08-11T17:41:22.756Z,25.09
2022-08-11T17:44:12.419Z,24.82
2022-08-11T17:47:05.139Z,24.62
2022-08-11T17:49:37.916Z,25.05
2022-08-11T17:52:26.390Z,24.69
2022-08-11T17:55:14.577Z,24.50
2022-08-11T17:58:01.378Z,24.66
2022-08-11T18:00:29.910Z,25.37
2022-08-11T18:03:19.059Z,24.70
2022-08-11T18:05:49.367Z,24.62
2022-08-11T18:08:39.770Z,25.42
2022-08-11T18:12:06.426Z,24.79
2022-08-11T18:14:34.955Z,25.13
2022-08-11T18:17:22.070Z,24.66
2022-08-11T18:20:08.292Z,24.53
2022-08-11T18:23:01.676Z,24.65
2022-08-11T18:25:54.317Z,24.30
2022-08-11T18:28:44.887Z,24.48
2022-08-11T18:31:34.091Z,25.02
2022-08-11T18:34:28.653Z,24.78
2022-08-11T18:37:30.599Z,24.12
2022-08-11T18:40:24.822Z,24.67
2022-08-11T18:43:14.186Z,24.98
2022-08-11T18:46:07.153Z,24.53
2022-08-11T18:48:58.599Z,24.91
2022-08-11T18:51:46.687Z,23.98
2022-08-11T18:54:34.724Z,24.52
2022-08-11T18:57:25.293Z,24.15
2022-08-11T19:00:13.534Z,24.79
2022-08-11T19:03:02.321Z,24.79
2022-08-11T19:06:31.772Z,24.68
2022-08-11T19:09:01.181Z,24.98
2022-08-11T19:11:49.888Z,24.30
2022-08-11T19:14:36.922Z,24.74
2022-08-11T19:17:43.970Z,24.33
2022-08-11T19:20:35.159Z,24.43
2022-08-11T19:23:22.358Z,24.95
2022-08-11T19:26:08.667Z,25.05
2022-08-11T19:28:58.290Z,25.20
2022-08-11T19:31:45.547Z,24.82
2022-08-11T19:34:37.091Z,24.65
2022-08-11T19:37:25.750Z,25.38
2022-08-11T19:40:14.241Z,25.29
2022-08-11T19:43:01.924Z,25.41
2022-08-11T19:45:52.256Z,25.33
2022-08-11T19:48:44.638Z,24.57
2022-08-11T19:51:32.305Z,24.43
2022-08-11T19:54:19.703Z,24.72
2022-08-11T19:57:08.375Z,24.40
2022-08-11T19:59:55.026Z,23.72
2022-08-11T20:02:41.557Z,24.05
2022-08-11T20:05:27.964Z,23.61
2022-08-11T20:08:16.019Z,23.50
2022-08-11T20:11:06.126Z,24.43
2022-08-11T20:13:52.719Z,23.62
2022-08-11T20:16:41.122Z,23.66
2022-08-11T20:19:54.930Z,23.59
2022-08-11T20:22:36.566Z,23.49
2022-08-11T20:25:24.213Z,23.82
2022-08-11T20:28:12.388Z,24.62
2022-08-11T20:30:59.667Z,24.77
2022-08-11T20:33:45.286Z,24.76
2022-08-11T20:36:33.439Z,24.55
2022-08-11T20:39:21.172Z,25.12
2022-08-11T20:42:07.810Z,24.52
2022-08-11T20:44:55.903Z,24.84
2022-08-11T20:47:59.225Z,24.23
2022-08-11T20:50:47.977Z,24.55
2022-08-11T20:53:39.073Z,24.64
2022-08-11T20:56:30.100Z,23.47
2022-08-11T20:59:21.977Z,23.64
2022-08-11T21:02:10.549Z,23.81
2022-08-11T21:05:00.220Z,23.16
2022-08-11T21:11:00.677Z,23.51
2022-08-11T21:13:51.399Z,24.08
2022-08-11T21:16:51.213Z,24.05
2022-08-11T21:20:00.764Z,24.18
2022-08-11T21:22:59.532Z,23.69
2022-08-11T21:26:02.021Z,24.09
2022-08-11T21:28:50.974Z,23.44
2022-08-11T21:31:38.123Z,23.32
2022-08-11T21:34:26.741Z,22.94
2022-08-11T21:37:12.791Z,22.90
2022-08-11T21:40:00.277Z,23.20
2022-08-11T21:42:46.990Z,22.79
2022-08-11T21:45:34.288Z,22.67
2022-08-11T21:48:20.908Z,23.21
2022-08-11T21:51:06.450Z,23.21
2022-08-11T21:53:52.768Z,23.43
2022-08-11T21:56:40.460Z,23.37
2022-08-11T21:59:27.234Z,23.40
2022-08-11T22:02:13.342Z,22.96
2022-08-11T22:05:00.536Z,23.37
2022-08-11T22:07:47.164Z,23.33
2022-08-11T22:10:41.855Z,23.31
2022-08-11T22:13:30.741Z,23.89
2022-08-11T22:16:18.314Z,23.17
2022-08-11T22:19:05.928Z,23.33
2022-08-11T22:22:03.294Z,23.14
2022-08-11T22:24:52.047Z,22.71
2022-08-11T22:27:40.051Z,23.11
2022-08-11T22:30:27.831Z,22.63
2022-08-11T22:33:16.460Z,22.45
2022-08-11T22:36:07.598Z,22.57
2022-08-11T22:38:55.887Z,22.49
2022-08-11T22:41:42.288Z,23.13
2022-08-11T22:44:28.892Z,22.56
2022-08-11T22:47:18.318Z,23.18
2022-08-11T22:50:08.184Z,23.10
2022-08-11T22:52:54.848Z,22.51
2022-08-11T22:55:43.038Z,22.65
2022-08-11T22:58:29.209Z,23.21
2022-08-11T23:01:15.419Z,22.59
2022-08-11T23:04:01.725Z,22.78
2022-08-11T23:06:48.859Z,23.00
2022-08-11T23:09:36.169Z,22.85
2022-08-11T23:12:22.340Z,22.67
2022-08-11T23:15:09.037Z,21.92
2022-08-11T23:17:55.776Z,22.07
2022-08-11T23:20:43.975Z,21.48
2022-08-11T23:23:32.590Z,21.33
2022-08-11T23:26:20.770Z,21.54
2022-08-11T23:29:06.570Z,22.29
2022-08-11T23:31:55.226Z,21.81
2022-08-11T23:35:04.343Z,21.86
2022-08-11T23:37:51.675Z,21.59
2022-08-11T23:40:37.306Z,21.40
2022-08-11T23:43:23.707Z,21.06
2022-08-11T23:46:09.219Z,20.73
2022-08-11T23:48:57.981Z,20.43
2022-08-11T23:51:44.450Z,20.90
2022-08-11T23:54:36.607Z,20.64
2022-08-11T23:57:23.924Z,21.41
